Flugplatz Nordhorn-Lingen

EDWN · 下萨克森, 德国

使用的METAR站距离机场84 km。
罗盘
风向 的 风向 的 风向 到 风向 170° Flugplatz Nordhorn-Lingen 5/23
风: 14 kt, 4 beaufort

6 kt

13 kt
改变
0 ft 1.000 2.000 3.000 4.000 5.000
Cloud Cloud
FEW 2.800
METAR EHGG 011325Z AUTO 17014KT 130V200 9999 FEW028/// 10/03 Q1001 NOSIG

METAR Flugplatz Nordhorn-Lingen - EDWN

Flugplatz Nordhorn-Lingen是,德国中的小机场。 该机场位于纬度52,45752和经度7,18277。 该机场有一条跑道: 5/23. 本场的ICAO机场代码为EDWN。 机场在Amsterdam FIR中。

该航空气象观测是针对Groningen Airport Eelde在2024年3月1日 14:25, 当地时间进行的。

机场观察

风向为170°,速度为14 kt。 风向在130°和200°之间变化。

可见度为10 km 或者更多。

有几云在2.800 ft的高度。 没有观察到天花板。

温度为10 °C,阵风为6 °C。 露点为3 °C,相对湿度为62%。 海平面上的气压为1001 hPa (QNH)。

白天

今天,太阳从07:16升起,在18:10降落。 这适用于Flugplatz Nordhorn-Lingen,世界夏令时可能有所不同。 当地时间与世界标准时间之间的时差为+1 小时。 当前,没有夏令时有效。

公司介绍

在这个机场,你可以找到飞行学校。 本场上唯一已知的公司是Vereinigung Aktiver Piloten e.V.。

体会

到Vliegles.nl去找飞行课程,跳伞和其他飞行体验。 浏览页面,了解Flugplatz Nordhorn-Lingen附近所有可用的活动。 你也可以使用搜索功能来寻找你所在地附近的特定飞行课程、跳伞或其他飞行体验。

跑道

Id 标题 侧风 逆风 侧风 %
5/23 055°-235° 13 kt 6 kt 91 %

逆风成分最大的方向会被突出显示,并用于横风计算。 这并不一定意味着这个方向在使用。

乌云

2.800 ft FEW 几云

温度 & 天气

温度 10 °C
露点 3 °C
相对湿度 62%
风寒 6 °C
Kp-index 1 (0-9)

白天

日出
07:19
中午
12:45
日落
18:12 (3:20)

小工具

你想在你的网站上有一个关于Flugplatz Nordhorn-Lingen的当前航空天气(METAR)的小部件吗?

显示HTML代码
?>